sensor_id;sensor_type;location;lat;lon;timestamp;P1;durP1;ratioP1;P2;durP2;ratioP2
27746;SDS011;15138;51.012;4.692;2023-04-25T00:01:50;19.20;;;5.30;;
27746;SDS011;15138;51.012;4.692;2023-04-25T00:04:18;16.23;;;4.40;;
27746;SDS011;15138;51.012;4.692;2023-04-25T00:06:48;15.35;;;4.40;;
27746;SDS011;15138;51.012;4.692;2023-04-25T00:09:18;19.75;;;4.75;;
27746;SDS011;15138;51.012;4.692;2023-04-25T00:11:46;11.77;;;4.25;;
27746;SDS011;15138;51.012;4.692;2023-04-25T00:14:15;14.20;;;4.32;;
27746;SDS011;15138;51.012;4.692;2023-04-25T00:16:44;17.95;;;4.88;;
27746;SDS011;15138;51.012;4.692;2023-04-25T00:19:12;17.25;;;5.68;;
27746;SDS011;15138;51.012;4.692;2023-04-25T00:21:40;19.38;;;4.90;;
27746;SDS011;15138;51.012;4.692;2023-04-25T00:24:11;16.92;;;5.75;;
27746;SDS011;15138;51.012;4.692;2023-04-25T00:26:41;13.35;;;4.45;;
27746;SDS011;15138;51.012;4.692;2023-04-25T00:29:09;21.10;;;6.13;;
27746;SDS011;15138;51.012;4.692;2023-04-25T00:31:38;25.17;;;5.68;;
27746;SDS011;15138;51.012;4.692;2023-04-25T00:34:06;15.15;;;4.90;;
27746;SDS011;15138;51.012;4.692;2023-04-25T00:36:35;20.55;;;6.57;;
27746;SDS011;15138;51.012;4.692;2023-04-25T00:39:04;14.73;;;4.20;;
27746;SDS011;15138;51.012;4.692;2023-04-25T00:41:32;11.02;;;4.30;;
27746;SDS011;15138;51.012;4.692;2023-04-25T00:44:03;16.75;;;4.35;;
27746;SDS011;15138;51.012;4.692;2023-04-25T00:46:33;16.30;;;4.25;;
27746;SDS011;15138;51.012;4.692;2023-04-25T00:49:01;11.13;;;4.32;;
27746;SDS011;15138;51.012;4.692;2023-04-25T00:51:30;13.30;;;4.45;;
27746;SDS011;15138;51.012;4.692;2023-04-25T00:53:59;13.73;;;4.22;;
27746;SDS011;15138;51.012;4.692;2023-04-25T00:56:27;12.32;;;4.60;;
27746;SDS011;15138;51.012;4.692;2023-04-25T00:58:56;9.52;;;4.05;;
27746;SDS011;15138;51.012;4.692;2023-04-25T01:01:26;12.93;;;5.00;;
27746;SDS011;15138;51.012;4.692;2023-04-25T01:03:55;10.40;;;4.05;;
27746;SDS011;15138;51.012;4.692;2023-04-25T01:06:24;11.80;;;4.30;;
27746;SDS011;15138;51.012;4.692;2023-04-25T01:08:53;7.63;;;3.50;;
27746;SDS011;15138;51.012;4.692;2023-04-25T01:11:21;19.90;;;5.68;;
27746;SDS011;15138;51.012;4.692;2023-04-25T01:13:50;13.57;;;4.78;;
27746;SDS011;15138;51.012;4.692;2023-04-25T01:16:18;16.25;;;5.25;;
27746;SDS011;15138;51.012;4.692;2023-04-25T01:18:51;12.23;;;4.13;;
27746;SDS011;15138;51.012;4.692;2023-04-25T01:21:21;15.38;;;6.18;;
27746;SDS011;15138;51.012;4.692;2023-04-25T01:23:52;22.02;;;6.00;;
27746;SDS011;15138;51.012;4.692;2023-04-25T01:26:21;17.35;;;5.32;;
27746;SDS011;15138;51.012;4.692;2023-04-25T01:28:50;14.45;;;4.90;;
27746;SDS011;15138;51.012;4.692;2023-04-25T01:31:19;12.68;;;4.28;;
27746;SDS011;15138;51.012;4.692;2023-04-25T01:33:47;11.80;;;4.63;;
27746;SDS011;15138;51.012;4.692;2023-04-25T01:36:16;14.85;;;5.28;;
27746;SDS011;15138;51.012;4.692;2023-04-25T01:38:47;10.45;;;4.60;;
27746;SDS011;15138;51.012;4.692;2023-04-25T01:41:15;9.88;;;4.22;;
27746;SDS011;15138;51.012;4.692;2023-04-25T01:43:44;15.73;;;4.45;;
27746;SDS011;15138;51.012;4.692;2023-04-25T01:46:13;13.10;;;3.90;;
27746;SDS011;15138;51.012;4.692;2023-04-25T01:48:41;13.93;;;4.07;;
27746;SDS011;15138;51.012;4.692;2023-04-25T01:51:10;21.35;;;4.90;;
27746;SDS011;15138;51.012;4.692;2023-04-25T01:53:38;11.05;;;3.92;;
27746;SDS011;15138;51.012;4.692;2023-04-25T01:56:08;18.50;;;4.22;;
27746;SDS011;15138;51.012;4.692;2023-04-25T01:58:37;10.23;;;3.40;;
27746;SDS011;15138;51.012;4.692;2023-04-25T02:01:05;16.10;;;3.85;;
27746;SDS011;15138;51.012;4.692;2023-04-25T02:03:34;11.80;;;3.47;;
27746;SDS011;15138;51.012;4.692;2023-04-25T02:06:03;12.30;;;3.75;;
27746;SDS011;15138;51.012;4.692;2023-04-25T02:08:31;18.10;;;4.65;;
27746;SDS011;15138;51.012;4.692;2023-04-25T02:11:00;12.77;;;3.20;;
27746;SDS011;15138;51.012;4.692;2023-04-25T02:13:30;10.90;;;3.70;;
27746;SDS011;15138;51.012;4.692;2023-04-25T02:15:59;17.75;;;4.80;;
27746;SDS011;15138;51.012;4.692;2023-04-25T02:18:28;15.43;;;3.40;;
27746;SDS011;15138;51.012;4.692;2023-04-25T02:20:57;16.65;;;3.83;;
27746;SDS011;15138;51.012;4.692;2023-04-25T02:23:26;19.73;;;4.18;;
27746;SDS011;15138;51.012;4.692;2023-04-25T02:25:54;14.23;;;3.33;;
27746;SDS011;15138;51.012;4.692;2023-04-25T02:28:24;18.50;;;3.97;;
27746;SDS011;15138;51.012;4.692;2023-04-25T02:30:54;15.43;;;3.80;;
27746;SDS011;15138;51.012;4.692;2023-04-25T02:33:22;18.27;;;3.58;;
27746;SDS011;15138;51.012;4.692;2023-04-25T02:35:51;13.38;;;3.60;;
27746;SDS011;15138;51.012;4.692;2023-04-25T02:38:19;13.00;;;3.40;;
27746;SDS011;15138;51.012;4.692;2023-04-25T02:40:48;9.48;;;2.58;;
27746;SDS011;15138;51.012;4.692;2023-04-25T02:43:16;16.90;;;4.03;;
27746;SDS011;15138;51.012;4.692;2023-04-25T02:45:44;16.77;;;3.53;;
27746;SDS011;15138;51.012;4.692;2023-04-25T02:48:14;16.33;;;4.15;;
27746;SDS011;15138;51.012;4.692;2023-04-25T02:50:43;13.05;;;2.90;;
27746;SDS011;15138;51.012;4.692;2023-04-25T02:53:11;14.35;;;3.10;;
27746;SDS011;15138;51.012;4.692;2023-04-25T02:55:40;19.65;;;3.78;;
27746;SDS011;15138;51.012;4.692;2023-04-25T02:58:08;21.02;;;3.97;;
27746;SDS011;15138;51.012;4.692;2023-04-25T03:00:37;16.40;;;4.05;;
27746;SDS011;15138;51.012;4.692;2023-04-25T03:03:05;20.42;;;3.95;;
27746;SDS011;15138;51.012;4.692;2023-04-25T03:05:35;19.17;;;4.53;;
27746;SDS011;15138;51.012;4.692;2023-04-25T03:08:04;17.25;;;3.85;;
27746;SDS011;15138;51.012;4.692;2023-04-25T03:10:32;12.50;;;3.60;;
27746;SDS011;15138;51.012;4.692;2023-04-25T03:13:01;23.33;;;5.10;;
27746;SDS011;15138;51.012;4.692;2023-04-25T03:15:29;15.45;;;3.15;;
27746;SDS011;15138;51.012;4.692;2023-04-25T03:17:58;20.80;;;4.10;;
27746;SDS011;15138;51.012;4.692;2023-04-25T03:20:27;16.30;;;3.47;;
27746;SDS011;15138;51.012;4.692;2023-04-25T03:22:56;26.95;;;4.10;;
27746;SDS011;15138;51.012;4.692;2023-04-25T03:25:25;18.55;;;4.38;;
27746;SDS011;15138;51.012;4.692;2023-04-25T03:27:53;19.65;;;4.57;;
27746;SDS011;15138;51.012;4.692;2023-04-25T03:30:21;13.55;;;3.15;;
27746;SDS011;15138;51.012;4.692;2023-04-25T03:32:50;21.98;;;5.13;;
27746;SDS011;15138;51.012;4.692;2023-04-25T03:35:18;22.65;;;4.22;;
27746;SDS011;15138;51.012;4.692;2023-04-25T03:37:46;16.85;;;3.25;;
27746;SDS011;15138;51.012;4.692;2023-04-25T03:40:16;14.63;;;3.97;;
27746;SDS011;15138;51.012;4.692;2023-04-25T03:42:44;12.43;;;3.33;;
27746;SDS011;15138;51.012;4.692;2023-04-25T03:45:12;18.33;;;3.50;;
27746;SDS011;15138;51.012;4.692;2023-04-25T03:47:40;13.75;;;2.83;;
27746;SDS011;15138;51.012;4.692;2023-04-25T03:50:08;21.50;;;4.13;;
27746;SDS011;15138;51.012;4.692;2023-04-25T03:52:37;21.55;;;3.88;;
27746;SDS011;15138;51.012;4.692;2023-04-25T03:55:06;18.05;;;4.80;;
27746;SDS011;15138;51.012;4.692;2023-04-25T03:57:35;17.20;;;3.47;;
27746;SDS011;15138;51.012;4.692;2023-04-25T04:00:04;16.00;;;3.65;;
27746;SDS011;15138;51.012;4.692;2023-04-25T04:02:34;13.85;;;3.95;;
27746;SDS011;15138;51.012;4.692;2023-04-25T04:05:04;10.70;;;2.95;;
27746;SDS011;15138;51.012;4.692;2023-04-25T04:07:33;15.43;;;3.20;;
27746;SDS011;15138;51.012;4.692;2023-04-25T04:10:06;17.63;;;3.60;;
27746;SDS011;15138;51.012;4.692;2023-04-25T04:12:36;12.05;;;3.22;;
27746;SDS011;15138;51.012;4.692;2023-04-25T04:15:04;12.05;;;3.03;;
27746;SDS011;15138;51.012;4.692;2023-04-25T04:17:33;14.77;;;3.25;;
27746;SDS011;15138;51.012;4.692;2023-04-25T04:20:02;16.63;;;3.55;;
27746;SDS011;15138;51.012;4.692;2023-04-25T04:22:30;13.90;;;3.65;;
27746;SDS011;15138;51.012;4.692;2023-04-25T04:24:59;16.27;;;3.70;;
27746;SDS011;15138;51.012;4.692;2023-04-25T04:27:27;11.77;;;3.22;;
27746;SDS011;15138;51.012;4.692;2023-04-25T04:29:57;20.20;;;3.88;;
27746;SDS011;15138;51.012;4.692;2023-04-25T04:32:25;18.88;;;3.55;;
27746;SDS011;15138;51.012;4.692;2023-04-25T04:34:53;16.15;;;3.50;;
27746;SDS011;15138;51.012;4.692;2023-04-25T04:37:22;13.27;;;3.28;;
27746;SDS011;15138;51.012;4.692;2023-04-25T04:39:50;23.67;;;4.40;;
27746;SDS011;15138;51.012;4.692;2023-04-25T04:42:19;12.60;;;3.38;;
27746;SDS011;15138;51.012;4.692;2023-04-25T04:44:50;19.38;;;4.10;;
27746;SDS011;15138;51.012;4.692;2023-04-25T04:47:22;19.13;;;3.88;;
27746;SDS011;15138;51.012;4.692;2023-04-25T04:49:52;11.63;;;2.65;;
27746;SDS011;15138;51.012;4.692;2023-04-25T04:52:20;13.02;;;3.28;;
27746;SDS011;15138;51.012;4.692;2023-04-25T04:54:48;11.98;;;3.00;;
27746;SDS011;15138;51.012;4.692;2023-04-25T04:57:16;12.25;;;4.28;;
27746;SDS011;15138;51.012;4.692;2023-04-25T04:59:44;15.57;;;4.13;;
27746;SDS011;15138;51.012;4.692;2023-04-25T05:02:12;14.15;;;3.90;;
27746;SDS011;15138;51.012;4.692;2023-04-25T05:04:42;12.18;;;3.10;;
27746;SDS011;15138;51.012;4.692;2023-04-25T05:07:10;12.68;;;3.53;;
27746;SDS011;15138;51.012;4.692;2023-04-25T05:09:38;12.18;;;3.25;;
27746;SDS011;15138;51.012;4.692;2023-04-25T05:12:07;11.70;;;3.55;;
27746;SDS011;15138;51.012;4.692;2023-04-25T05:14:35;15.48;;;3.55;;
27746;SDS011;15138;51.012;4.692;2023-04-25T05:17:03;13.93;;;4.18;;
27746;SDS011;15138;51.012;4.692;2023-04-25T05:19:34;15.07;;;3.70;;
27746;SDS011;15138;51.012;4.692;2023-04-25T05:22:04;19.48;;;4.60;;
27746;SDS011;15138;51.012;4.692;2023-04-25T05:24:32;14.75;;;3.95;;
27746;SDS011;15138;51.012;4.692;2023-04-25T05:27:00;18.52;;;3.95;;
27746;SDS011;15138;51.012;4.692;2023-04-25T05:29:28;16.17;;;4.00;;
27746;SDS011;15138;51.012;4.692;2023-04-25T05:31:56;21.63;;;4.45;;
27746;SDS011;15138;51.012;4.692;2023-04-25T05:34:25;24.45;;;4.68;;
27746;SDS011;15138;51.012;4.692;2023-04-25T05:36:53;15.55;;;4.32;;
27746;SDS011;15138;51.012;4.692;2023-04-25T05:39:23;21.23;;;4.55;;
27746;SDS011;15138;51.012;4.692;2023-04-25T05:41:51;23.42;;;5.28;;
27746;SDS011;15138;51.012;4.692;2023-04-25T05:44:19;19.05;;;4.30;;
27746;SDS011;15138;51.012;4.692;2023-04-25T05:46:48;19.35;;;4.43;;
27746;SDS011;15138;51.012;4.692;2023-04-25T05:49:16;21.42;;;5.03;;
27746;SDS011;15138;51.012;4.692;2023-04-25T05:51:45;23.45;;;4.65;;
27746;SDS011;15138;51.012;4.692;2023-04-25T05:54:13;15.07;;;3.63;;
27746;SDS011;15138;51.012;4.692;2023-04-25T05:56:42;19.40;;;4.63;;
27746;SDS011;15138;51.012;4.692;2023-04-25T05:59:10;24.30;;;5.13;;
27746;SDS011;15138;51.012;4.692;2023-04-25T06:01:39;13.32;;;3.33;;
27746;SDS011;15138;51.012;4.692;2023-04-25T06:04:09;20.63;;;4.10;;
27746;SDS011;15138;51.012;4.692;2023-04-25T06:06:38;21.98;;;4.40;;
27746;SDS011;15138;51.012;4.692;2023-04-25T06:09:06;15.52;;;3.75;;
27746;SDS011;15138;51.012;4.692;2023-04-25T06:11:34;16.00;;;3.60;;
27746;SDS011;15138;51.012;4.692;2023-04-25T06:14:04;22.65;;;4.32;;
27746;SDS011;15138;51.012;4.692;2023-04-25T06:16:33;21.67;;;4.75;;
27746;SDS011;15138;51.012;4.692;2023-04-25T06:19:01;13.95;;;3.28;;
27746;SDS011;15138;51.012;4.692;2023-04-25T06:21:29;23.98;;;4.40;;
27746;SDS011;15138;51.012;4.692;2023-04-25T06:23:57;16.10;;;3.67;;
27746;SDS011;15138;51.012;4.692;2023-04-25T06:26:25;16.02;;;3.00;;
27746;SDS011;15138;51.012;4.692;2023-04-25T06:28:54;13.65;;;3.53;;
27746;SDS011;15138;51.012;4.692;2023-04-25T06:31:23;30.40;;;5.25;;
27746;SDS011;15138;51.012;4.692;2023-04-25T06:33:52;18.05;;;4.47;;
27746;SDS011;15138;51.012;4.692;2023-04-25T06:36:21;22.08;;;4.35;;
27746;SDS011;15138;51.012;4.692;2023-04-25T06:38:51;21.75;;;4.45;;
27746;SDS011;15138;51.012;4.692;2023-04-25T06:41:19;17.70;;;3.85;;
27746;SDS011;15138;51.012;4.692;2023-04-25T06:43:48;30.30;;;4.15;;
27746;SDS011;15138;51.012;4.692;2023-04-25T06:46:16;16.00;;;3.22;;
27746;SDS011;15138;51.012;4.692;2023-04-25T06:48:45;14.48;;;3.47;;
27746;SDS011;15138;51.012;4.692;2023-04-25T06:51:14;17.25;;;3.95;;
27746;SDS011;15138;51.012;4.692;2023-04-25T06:53:42;19.48;;;3.42;;
27746;SDS011;15138;51.012;4.692;2023-04-25T06:56:10;15.73;;;3.42;;
27746;SDS011;15138;51.012;4.692;2023-04-25T06:58:38;14.00;;;3.33;;
27746;SDS011;15138;51.012;4.692;2023-04-25T07:01:06;15.07;;;3.65;;
27746;SDS011;15138;51.012;4.692;2023-04-25T07:03:35;10.27;;;2.83;;
27746;SDS011;15138;51.012;4.692;2023-04-25T07:06:05;11.95;;;3.40;;
27746;SDS011;15138;51.012;4.692;2023-04-25T07:08:34;24.80;;;4.22;;
27746;SDS011;15138;51.012;4.692;2023-04-25T07:11:02;13.82;;;2.90;;
27746;SDS011;15138;51.012;4.692;2023-04-25T07:13:30;15.80;;;3.35;;
27746;SDS011;15138;51.012;4.692;2023-04-25T07:15:58;19.70;;;4.15;;
27746;SDS011;15138;51.012;4.692;2023-04-25T07:18:27;18.15;;;3.58;;
27746;SDS011;15138;51.012;4.692;2023-04-25T07:20:55;18.15;;;3.67;;
27746;SDS011;15138;51.012;4.692;2023-04-25T07:23:25;14.68;;;3.13;;
27746;SDS011;15138;51.012;4.692;2023-04-25T07:25:54;14.57;;;3.00;;
27746;SDS011;15138;51.012;4.692;2023-04-25T07:28:22;17.63;;;3.30;;
27746;SDS011;15138;51.012;4.692;2023-04-25T07:30:50;12.88;;;3.13;;
27746;SDS011;15138;51.012;4.692;2023-04-25T07:33:19;14.55;;;2.80;;
27746;SDS011;15138;51.012;4.692;2023-04-25T07:35:47;18.88;;;3.90;;
27746;SDS011;15138;51.012;4.692;2023-04-25T07:38:16;17.20;;;3.90;;
27746;SDS011;15138;51.012;4.692;2023-04-25T07:40:46;12.18;;;3.15;;
27746;SDS011;15138;51.012;4.692;2023-04-25T07:43:14;13.57;;;2.80;;
27746;SDS011;15138;51.012;4.692;2023-04-25T07:45:43;21.75;;;3.60;;
27746;SDS011;15138;51.012;4.692;2023-04-25T07:48:16;11.07;;;3.10;;
27746;SDS011;15138;51.012;4.692;2023-04-25T07:50:44;18.80;;;2.92;;
27746;SDS011;15138;51.012;4.692;2023-04-25T07:53:12;16.08;;;3.28;;
27746;SDS011;15138;51.012;4.692;2023-04-25T07:55:41;13.02;;;2.63;;
27746;SDS011;15138;51.012;4.692;2023-04-25T07:58:10;11.90;;;2.90;;
27746;SDS011;15138;51.012;4.692;2023-04-25T08:00:40;16.95;;;2.80;;
27746;SDS011;15138;51.012;4.692;2023-04-25T08:03:09;19.33;;;3.40;;
27746;SDS011;15138;51.012;4.692;2023-04-25T08:05:38;13.15;;;3.42;;
27746;SDS011;15138;51.012;4.692;2023-04-25T08:08:06;12.57;;;3.10;;
27746;SDS011;15138;51.012;4.692;2023-04-25T08:10:34;12.05;;;2.78;;
27746;SDS011;15138;51.012;4.692;2023-04-25T08:13:02;10.18;;;2.83;;
27746;SDS011;15138;51.012;4.692;2023-04-25T08:15:32;13.63;;;2.95;;
27746;SDS011;15138;51.012;4.692;2023-04-25T08:18:00;14.90;;;2.80;;
27746;SDS011;15138;51.012;4.692;2023-04-25T08:20:28;17.85;;;3.17;;
27746;SDS011;15138;51.012;4.692;2023-04-25T08:22:56;16.42;;;3.40;;
27746;SDS011;15138;51.012;4.692;2023-04-25T08:25:24;18.63;;;3.05;;
27746;SDS011;15138;51.012;4.692;2023-04-25T08:27:53;16.83;;;3.05;;
27746;SDS011;15138;51.012;4.692;2023-04-25T08:30:21;17.85;;;2.55;;
27746;SDS011;15138;51.012;4.692;2023-04-25T08:32:51;13.25;;;2.40;;
27746;SDS011;15138;51.012;4.692;2023-04-25T08:35:19;12.70;;;2.78;;
27746;SDS011;15138;51.012;4.692;2023-04-25T08:37:48;14.80;;;3.17;;
27746;SDS011;15138;51.012;4.692;2023-04-25T08:40:16;12.10;;;2.80;;
27746;SDS011;15138;51.012;4.692;2023-04-25T08:42:44;13.50;;;2.92;;
27746;SDS011;15138;51.012;4.692;2023-04-25T08:45:13;13.00;;;3.20;;
27746;SDS011;15138;51.012;4.692;2023-04-25T08:47:42;12.88;;;3.28;;
27746;SDS011;15138;51.012;4.692;2023-04-25T08:50:12;12.18;;;2.83;;
27746;SDS011;15138;51.012;4.692;2023-04-25T08:52:43;14.27;;;3.22;;
27746;SDS011;15138;51.012;4.692;2023-04-25T08:55:12;11.73;;;2.70;;
27746;SDS011;15138;51.012;4.692;2023-04-25T08:57:40;11.05;;;2.50;;
27746;SDS011;15138;51.012;4.692;2023-04-25T09:00:10;8.43;;;2.40;;
27746;SDS011;15138;51.012;4.692;2023-04-25T09:02:39;13.85;;;2.60;;
27746;SDS011;15138;51.012;4.692;2023-04-25T09:05:12;9.95;;;2.50;;
27746;SDS011;15138;51.012;4.692;2023-04-25T09:07:41;11.32;;;2.20;;
27746;SDS011;15138;51.012;4.692;2023-04-25T09:10:09;12.60;;;2.70;;
27746;SDS011;15138;51.012;4.692;2023-04-25T09:12:38;14.20;;;2.90;;
27746;SDS011;15138;51.012;4.692;2023-04-25T09:15:08;13.02;;;2.65;;
27746;SDS011;15138;51.012;4.692;2023-04-25T09:17:38;13.38;;;2.65;;
27746;SDS011;15138;51.012;4.692;2023-04-25T09:20:11;9.35;;;2.40;;
27746;SDS011;15138;51.012;4.692;2023-04-25T09:22:41;13.75;;;2.10;;
27746;SDS011;15138;51.012;4.692;2023-04-25T09:25:13;9.65;;;2.20;;
27746;SDS011;15138;51.012;4.692;2023-04-25T09:27:50;9.90;;;1.90;;
27746;SDS011;15138;51.012;4.692;2023-04-25T09:30:28;8.38;;;2.17;;
27746;SDS011;15138;51.012;4.692;2023-04-25T09:32:57;8.05;;;2.20;;
27746;SDS011;15138;51.012;4.692;2023-04-25T09:35:36;9.27;;;2.00;;
27746;SDS011;15138;51.012;4.692;2023-04-25T09:38:09;5.57;;;1.60;;
27746;SDS011;15138;51.012;4.692;2023-04-25T09:40:39;6.55;;;2.53;;
27746;SDS011;15138;51.012;4.692;2023-04-25T09:43:18;6.60;;;1.98;;
27746;SDS011;15138;51.012;4.692;2023-04-25T09:45:47;6.55;;;2.22;;
27746;SDS011;15138;51.012;4.692;2023-04-25T09:48:16;5.18;;;1.77;;
27746;SDS011;15138;51.012;4.692;2023-04-25T09:50:48;7.65;;;1.92;;
27746;SDS011;15138;51.012;4.692;2023-04-25T09:53:32;6.55;;;1.45;;
27746;SDS011;15138;51.012;4.692;2023-04-25T09:56:00;4.22;;;1.40;;
27746;SDS011;15138;51.012;4.692;2023-04-25T09:58:32;8.07;;;2.10;;
27746;SDS011;15138;51.012;4.692;2023-04-25T10:01:02;7.93;;;1.92;;
27746;SDS011;15138;51.012;4.692;2023-04-25T10:03:31;7.55;;;2.00;;
27746;SDS011;15138;51.012;4.692;2023-04-25T10:06:03;6.50;;;1.75;;
27746;SDS011;15138;51.012;4.692;2023-04-25T10:08:35;11.88;;;2.10;;
27746;SDS011;15138;51.012;4.692;2023-04-25T10:11:05;6.03;;;1.65;;
27746;SDS011;15138;51.012;4.692;2023-04-25T10:13:34;6.22;;;1.95;;
27746;SDS011;15138;51.012;4.692;2023-04-25T10:16:04;7.68;;;1.65;;
27746;SDS011;15138;51.012;4.692;2023-04-25T10:18:32;6.53;;;1.65;;
27746;SDS011;15138;51.012;4.692;2023-04-25T10:21:02;10.02;;;2.15;;
27746;SDS011;15138;51.012;4.692;2023-04-25T10:23:34;8.25;;;2.00;;
27746;SDS011;15138;51.012;4.692;2023-04-25T10:26:04;8.23;;;1.80;;
27746;SDS011;15138;51.012;4.692;2023-04-25T10:31:22;5.65;;;1.60;;
27746;SDS011;15138;51.012;4.692;2023-04-25T10:33:51;3.97;;;1.30;;
27746;SDS011;15138;51.012;4.692;2023-04-25T10:36:22;7.32;;;1.60;;
27746;SDS011;15138;51.012;4.692;2023-04-25T10:38:53;4.60;;;1.67;;
27746;SDS011;15138;51.012;4.692;2023-04-25T10:41:21;7.68;;;1.63;;
27746;SDS011;15138;51.012;4.692;2023-04-25T10:43:50;5.70;;;1.55;;
27746;SDS011;15138;51.012;4.692;2023-04-25T10:46:28;6.75;;;1.27;;
27746;SDS011;15138;51.012;4.692;2023-04-25T10:48:58;6.63;;;1.65;;
27746;SDS011;15138;51.012;4.692;2023-04-25T10:51:29;12.25;;;2.53;;
27746;SDS011;15138;51.012;4.692;2023-04-25T10:54:18;6.63;;;2.03;;
27746;SDS011;15138;51.012;4.692;2023-04-25T10:56:48;8.82;;;1.85;;
27746;SDS011;15138;51.012;4.692;2023-04-25T10:59:16;8.90;;;1.83;;
27746;SDS011;15138;51.012;4.692;2023-04-25T11:01:46;5.28;;;1.55;;
27746;SDS011;15138;51.012;4.692;2023-04-25T11:04:19;8.27;;;1.80;;
27746;SDS011;15138;51.012;4.692;2023-04-25T11:07:00;5.95;;;1.65;;
27746;SDS011;15138;51.012;4.692;2023-04-25T11:09:35;6.88;;;1.40;;
27746;SDS011;15138;51.012;4.692;2023-04-25T11:12:07;4.70;;;1.50;;
27746;SDS011;15138;51.012;4.692;2023-04-25T11:14:38;5.18;;;1.23;;
27746;SDS011;15138;51.012;4.692;2023-04-25T11:17:11;2.67;;;1.15;;
27746;SDS011;15138;51.012;4.692;2023-04-25T11:19:39;4.22;;;1.13;;
27746;SDS011;15138;51.012;4.692;2023-04-25T11:22:09;7.95;;;1.63;;
27746;SDS011;15138;51.012;4.692;2023-04-25T11:24:37;6.18;;;1.95;;
27746;SDS011;15138;51.012;4.692;2023-04-25T11:27:06;10.27;;;1.80;;
27746;SDS011;15138;51.012;4.692;2023-04-25T11:29:34;3.47;;;1.33;;
27746;SDS011;15138;51.012;4.692;2023-04-25T11:32:03;10.57;;;2.00;;
27746;SDS011;15138;51.012;4.692;2023-04-25T11:34:32;5.57;;;1.45;;
27746;SDS011;15138;51.012;4.692;2023-04-25T11:37:01;5.07;;;1.73;;
27746;SDS011;15138;51.012;4.692;2023-04-25T11:39:31;4.95;;;1.30;;
27746;SDS011;15138;51.012;4.692;2023-04-25T11:41:59;8.00;;;1.60;;
27746;SDS011;15138;51.012;4.692;2023-04-25T11:44:33;7.05;;;1.40;;
27746;SDS011;15138;51.012;4.692;2023-04-25T11:47:02;6.57;;;1.67;;
27746;SDS011;15138;51.012;4.692;2023-04-25T11:49:30;10.35;;;1.77;;
27746;SDS011;15138;51.012;4.692;2023-04-25T11:51:58;4.90;;;1.60;;
27746;SDS011;15138;51.012;4.692;2023-04-25T11:54:27;3.97;;;1.33;;
27746;SDS011;15138;51.012;4.692;2023-04-25T11:56:56;8.38;;;1.30;;
27746;SDS011;15138;51.012;4.692;2023-04-25T11:59:25;5.30;;;1.55;;
27746;SDS011;15138;51.012;4.692;2023-04-25T12:01:54;8.93;;;1.98;;
27746;SDS011;15138;51.012;4.692;2023-04-25T12:04:24;6.28;;;1.38;;
27746;SDS011;15138;51.012;4.692;2023-04-25T12:06:53;4.40;;;1.40;;
27746;SDS011;15138;51.012;4.692;2023-04-25T12:09:27;5.55;;;1.70;;
27746;SDS011;15138;51.012;4.692;2023-04-25T12:11:58;8.90;;;1.77;;
27746;SDS011;15138;51.012;4.692;2023-04-25T12:14:30;5.13;;;1.17;;
27746;SDS011;15138;51.012;4.692;2023-04-25T12:16:59;8.52;;;1.30;;
27746;SDS011;15138;51.012;4.692;2023-04-25T12:19:31;5.55;;;1.42;;
27746;SDS011;15138;51.012;4.692;2023-04-25T12:22:00;3.10;;;1.10;;
27746;SDS011;15138;51.012;4.692;2023-04-25T12:24:32;5.13;;;1.25;;
27746;SDS011;15138;51.012;4.692;2023-04-25T12:27:06;6.10;;;1.40;;
27746;SDS011;15138;51.012;4.692;2023-04-25T12:29:35;5.38;;;1.58;;
27746;SDS011;15138;51.012;4.692;2023-04-25T12:32:15;8.38;;;1.33;;
27746;SDS011;15138;51.012;4.692;2023-04-25T12:34:44;4.95;;;1.27;;
27746;SDS011;15138;51.012;4.692;2023-04-25T12:37:12;4.43;;;1.23;;
27746;SDS011;15138;51.012;4.692;2023-04-25T12:39:40;4.35;;;1.17;;
27746;SDS011;15138;51.012;4.692;2023-04-25T12:42:10;6.32;;;1.60;;
27746;SDS011;15138;51.012;4.692;2023-04-25T12:44:39;5.80;;;1.45;;
27746;SDS011;15138;51.012;4.692;2023-04-25T12:47:07;6.38;;;1.42;;
27746;SDS011;15138;51.012;4.692;2023-04-25T12:49:36;6.88;;;1.40;;
27746;SDS011;15138;51.012;4.692;2023-04-25T12:52:04;2.55;;;1.05;;
27746;SDS011;15138;51.012;4.692;2023-04-25T12:54:33;5.50;;;1.25;;
27746;SDS011;15138;51.012;4.692;2023-04-25T12:57:04;6.20;;;1.42;;
27746;SDS011;15138;51.012;4.692;2023-04-25T12:59:34;5.60;;;1.17;;
27746;SDS011;15138;51.012;4.692;2023-04-25T13:02:02;5.75;;;1.17;;
27746;SDS011;15138;51.012;4.692;2023-04-25T13:04:31;7.22;;;1.00;;
27746;SDS011;15138;51.012;4.692;2023-04-25T13:06:59;5.05;;;1.15;;
27746;SDS011;15138;51.012;4.692;2023-04-25T13:09:27;3.35;;;1.15;;
27746;SDS011;15138;51.012;4.692;2023-04-25T13:11:55;3.85;;;1.17;;
27746;SDS011;15138;51.012;4.692;2023-04-25T13:14:24;4.57;;;1.10;;
27746;SDS011;15138;51.012;4.692;2023-04-25T13:16:54;6.05;;;1.23;;
27746;SDS011;15138;51.012;4.692;2023-04-25T13:19:22;3.83;;;1.20;;
27746;SDS011;15138;51.012;4.692;2023-04-25T13:21:51;2.45;;;0.88;;
27746;SDS011;15138;51.012;4.692;2023-04-25T13:24:20;3.67;;;1.10;;
27746;SDS011;15138;51.012;4.692;2023-04-25T13:26:48;4.93;;;1.27;;
27746;SDS011;15138;51.012;4.692;2023-04-25T13:29:16;5.30;;;1.20;;
27746;SDS011;15138;51.012;4.692;2023-04-25T13:31:44;4.25;;;1.13;;
27746;SDS011;15138;51.012;4.692;2023-04-25T13:34:14;5.47;;;1.05;;
27746;SDS011;15138;51.012;4.692;2023-04-25T13:36:42;8.25;;;1.35;;
27746;SDS011;15138;51.012;4.692;2023-04-25T13:39:11;4.10;;;1.20;;
27746;SDS011;15138;51.012;4.692;2023-04-25T13:41:40;3.83;;;1.10;;
27746;SDS011;15138;51.012;4.692;2023-04-25T13:44:08;3.03;;;1.13;;
27746;SDS011;15138;51.012;4.692;2023-04-25T13:46:36;3.45;;;0.90;;
27746;SDS011;15138;51.012;4.692;2023-04-25T13:49:08;5.85;;;1.10;;
27746;SDS011;15138;51.012;4.692;2023-04-25T13:51:40;9.68;;;1.45;;
27746;SDS011;15138;51.012;4.692;2023-04-25T13:54:08;6.57;;;1.25;;
27746;SDS011;15138;51.012;4.692;2023-04-25T13:56:37;7.10;;;1.50;;
27746;SDS011;15138;51.012;4.692;2023-04-25T13:59:08;2.90;;;0.98;;
27746;SDS011;15138;51.012;4.692;2023-04-25T14:01:38;8.05;;;1.38;;
27746;SDS011;15138;51.012;4.692;2023-04-25T14:04:07;5.18;;;1.13;;
27746;SDS011;15138;51.012;4.692;2023-04-25T14:06:35;3.75;;;0.82;;
27746;SDS011;15138;51.012;4.692;2023-04-25T14:09:05;4.07;;;1.10;;
27746;SDS011;15138;51.012;4.692;2023-04-25T14:11:36;3.60;;;1.10;;
27746;SDS011;15138;51.012;4.692;2023-04-25T14:14:04;7.95;;;1.30;;
27746;SDS011;15138;51.012;4.692;2023-04-25T14:16:33;5.32;;;1.10;;
27746;SDS011;15138;51.012;4.692;2023-04-25T14:19:01;4.45;;;1.13;;
27746;SDS011;15138;51.012;4.692;2023-04-25T14:21:30;4.95;;;1.27;;
27746;SDS011;15138;51.012;4.692;2023-04-25T14:23:59;5.90;;;1.50;;
27746;SDS011;15138;51.012;4.692;2023-04-25T14:26:29;5.45;;;1.15;;
27746;SDS011;15138;51.012;4.692;2023-04-25T14:28:57;6.80;;;1.20;;
27746;SDS011;15138;51.012;4.692;2023-04-25T14:31:25;5.95;;;1.10;;
27746;SDS011;15138;51.012;4.692;2023-04-25T14:33:54;4.45;;;1.30;;
27746;SDS011;15138;51.012;4.692;2023-04-25T14:36:25;3.35;;;1.17;;
27746;SDS011;15138;51.012;4.692;2023-04-25T14:38:53;8.40;;;0.88;;
27746;SDS011;15138;51.012;4.692;2023-04-25T14:41:22;7.40;;;1.33;;
27746;SDS011;15138;51.012;4.692;2023-04-25T14:43:51;5.82;;;1.17;;
27746;SDS011;15138;51.012;4.692;2023-04-25T14:46:20;6.90;;;1.30;;
27746;SDS011;15138;51.012;4.692;2023-04-25T14:48:49;5.45;;;1.23;;
27746;SDS011;15138;51.012;4.692;2023-04-25T14:51:22;4.53;;;0.95;;
27746;SDS011;15138;51.012;4.692;2023-04-25T14:53:50;5.10;;;1.10;;